MBEST EBBR-EGKB
Flight info
| Callsign | MBEST |
|---|---|
| Flight time | 0h 38m |
| Altitude | 20000 |
| Route | HELEN L179 COA L608 SUMUM |
| Aircraft | C750/M-SBDE3FGHRWXY/S |
Departure
| Time | 2026-04-14 13:27 |
|---|---|
| Airport | Brussels Airport (EBBR) |
Arrival
| Time | 2026-04-14 14:06 |
|---|---|
| Airport | London Biggin Hill Airport (EGKB) |
| Time | Latitude | Longitude | Altitude | Speed | Heading |
|---|---|---|---|---|---|
| 2026-04-14 13:03 | 50.89835 | 4.47455 | 125 ft | 0 kts | 155° |
| 2026-04-14 13:19 | 50.89838 | 4.47453 | 125 ft | 2 kts | 155° |
| 2026-04-14 13:19 | 50.89852 | 4.47439 | 122 ft | 3 kts | 154° |
| 2026-04-14 13:19 | 50.89869 | 4.47427 | 125 ft | 3 kts | 147° |
| 2026-04-14 13:19 | 50.89884 | 4.47408 | 123 ft | 3 kts | 125° |
| 2026-04-14 13:20 | 50.89892 | 4.47381 | 123 ft | 3 kts | 91° |
| 2026-04-14 13:20 | 50.89889 | 4.47352 | 123 ft | 3 kts | 64° |
| 2026-04-14 13:20 | 50.89879 | 4.47324 | 123 ft | 3 kts | 54° |
| 2026-04-14 13:20 | 50.89868 | 4.47301 | 125 ft | 2 kts | 60° |
| 2026-04-14 13:21 | 50.89866 | 4.47296 | 121 ft | 0 kts | 62° |
| 2026-04-14 13:23 | 50.89871 | 4.47310 | 125 ft | 4 kts | 62° |
| 2026-04-14 13:23 | 50.89893 | 4.47381 | 121 ft | 11 kts | 66° |
| 2026-04-14 13:23 | 50.89935 | 4.47526 | 122 ft | 18 kts | 65° |
| 2026-04-14 13:24 | 50.90016 | 4.47580 | 119 ft | 16 kts | 339° |
| 2026-04-14 13:24 | 50.90264 | 4.47476 | 118 ft | 14 kts | 83° |
| 2026-04-14 13:24 | 50.90305 | 4.47623 | 117 ft | 19 kts | 65° |
| 2026-04-14 13:25 | 50.90367 | 4.47839 | 118 ft | 22 kts | 65° |
| 2026-04-14 13:25 | 50.90427 | 4.48049 | 116 ft | 20 kts | 66° |
| 2026-04-14 13:26 | 50.90598 | 4.48453 | 116 ft | 9 kts | 300° |
| 2026-04-14 13:26 | 50.90625 | 4.48386 | 118 ft | 6 kts | 303° |
| 2026-04-14 13:26 | 50.90646 | 4.48325 | 116 ft | 6 kts | 299° |
| 2026-04-14 13:26 | 50.90667 | 4.48253 | 118 ft | 8 kts | 260° |
| 2026-04-14 13:27 | 50.90539 | 4.47806 | 118 ft | 102 kts | 245° |
| 2026-04-14 13:27 | 50.90158 | 4.46494 | 507 ft | 135 kts | 247° |
| 2026-04-14 13:27 | 50.89775 | 4.45135 | 1349 ft | 139 kts | 244° |
| 2026-04-14 13:27 | 50.89549 | 4.43555 | 1636 ft | 168 kts | 272° |
| 2026-04-14 13:28 | 50.90233 | 4.41860 | 2014 ft | 190 kts | 321° |
| 2026-04-14 13:28 | 50.91250 | 4.40743 | 3172 ft | 164 kts | 326° |
| 2026-04-14 13:28 | 50.92162 | 4.39684 | 3915 ft | 168 kts | 314° |
| 2026-04-14 13:28 | 50.92942 | 4.38147 | 4367 ft | 193 kts | 303° |
| 2026-04-14 13:29 | 50.93763 | 4.36299 | 4991 ft | 217 kts | 303° |
| 2026-04-14 13:29 | 50.94695 | 4.34244 | 5606 ft | 241 kts | 304° |
| 2026-04-14 13:29 | 50.95731 | 4.31977 | 6244 ft | 263 kts | 304° |
| 2026-04-14 13:29 | 50.96811 | 4.29619 | 7330 ft | 264 kts | 305° |
| 2026-04-14 13:30 | 50.98068 | 4.27444 | 8385 ft | 271 kts | 314° |
| 2026-04-14 13:30 | 50.99424 | 4.25355 | 9578 ft | 273 kts | 315° |
| 2026-04-14 13:30 | 51.00770 | 4.23226 | 10492 ft | 281 kts | 314° |
| 2026-04-14 13:30 | 51.02208 | 4.20933 | 10835 ft | 306 kts | 314° |
| 2026-04-14 13:31 | 51.03788 | 4.18427 | 10994 ft | 334 kts | 314° |
| 2026-04-14 13:31 | 51.05473 | 4.15765 | 11554 ft | 344 kts | 314° |
| 2026-04-14 13:31 | 51.07169 | 4.13081 | 12416 ft | 346 kts | 314° |
| 2026-04-14 13:31 | 51.08887 | 4.10349 | 13170 ft | 351 kts | 314° |
| 2026-04-14 13:32 | 51.10620 | 4.07592 | 13945 ft | 355 kts | 314° |
| 2026-04-14 13:32 | 51.12379 | 4.04793 | 14622 ft | 358 kts | 314° |
| 2026-04-14 13:32 | 51.14150 | 4.01971 | 15313 ft | 361 kts | 314° |
| 2026-04-14 13:32 | 51.15932 | 3.99129 | 15999 ft | 365 kts | 314° |
| 2026-04-14 13:33 | 51.17127 | 3.97221 | 16463 ft | 367 kts | 314° |
| 2026-04-14 13:33 | 51.18940 | 3.94323 | 17183 ft | 370 kts | 314° |
| 2026-04-14 13:33 | 51.21369 | 3.90435 | 18170 ft | 375 kts | 314° |
| 2026-04-14 13:33 | 51.23115 | 3.87318 | 18781 ft | 379 kts | 304° |
| 2026-04-14 13:34 | 51.24895 | 3.80879 | 19995 ft | 380 kts | 290° |
| 2026-04-14 13:34 | 51.25770 | 3.76862 | 20189 ft | 398 kts | 290° |
| 2026-04-14 13:34 | 51.26706 | 3.72586 | 20195 ft | 418 kts | 290° |
| 2026-04-14 13:35 | 51.27697 | 3.68107 | 20201 ft | 432 kts | 290° |
| 2026-04-14 13:35 | 51.28702 | 3.63556 | 20199 ft | 436 kts | 290° |
| 2026-04-14 13:35 | 51.29704 | 3.58974 | 20201 ft | 438 kts | 289° |
| 2026-04-14 13:35 | 51.30708 | 3.54369 | 20200 ft | 439 kts | 289° |
| 2026-04-14 13:36 | 51.31719 | 3.49741 | 20201 ft | 440 kts | 289° |
| 2026-04-14 13:36 | 51.32727 | 3.45119 | 20200 ft | 440 kts | 289° |
| 2026-04-14 13:36 | 51.33733 | 3.40490 | 20204 ft | 441 kts | 289° |
| 2026-04-14 13:36 | 51.34738 | 3.35852 | 20204 ft | 440 kts | 289° |
| 2026-04-14 13:37 | 51.35822 | 3.31270 | 20198 ft | 440 kts | 291° |
| 2026-04-14 13:37 | 51.36918 | 3.26687 | 20199 ft | 440 kts | 291° |
| 2026-04-14 13:37 | 51.37985 | 3.22159 | 20199 ft | 440 kts | 291° |
| 2026-04-14 13:37 | 51.39063 | 3.17578 | 20198 ft | 440 kts | 291° |
| 2026-04-14 13:38 | 51.40150 | 3.12983 | 20199 ft | 440 kts | 291° |
| 2026-04-14 13:38 | 51.41232 | 3.08399 | 20199 ft | 440 kts | 291° |
| 2026-04-14 13:38 | 51.42311 | 3.03811 | 20202 ft | 440 kts | 291° |
| 2026-04-14 13:38 | 51.43390 | 2.99218 | 20202 ft | 440 kts | 291° |
| 2026-04-14 13:39 | 51.44466 | 2.94627 | 20200 ft | 440 kts | 291° |
| 2026-04-14 13:39 | 51.45541 | 2.90031 | 20200 ft | 440 kts | 291° |
| 2026-04-14 13:39 | 51.46615 | 2.85432 | 20201 ft | 439 kts | 291° |
| 2026-04-14 13:39 | 51.47682 | 2.80846 | 20200 ft | 439 kts | 291° |
| 2026-04-14 13:40 | 51.48749 | 2.76256 | 20196 ft | 439 kts | 291° |
| 2026-04-14 13:40 | 51.49816 | 2.71658 | 20202 ft | 439 kts | 291° |
| 2026-04-14 13:40 | 51.50878 | 2.67066 | 20195 ft | 439 kts | 291° |
| 2026-04-14 13:40 | 51.51940 | 2.62466 | 20195 ft | 439 kts | 291° |
| 2026-04-14 13:41 | 51.53004 | 2.57850 | 20193 ft | 439 kts | 291° |
| 2026-04-14 13:41 | 51.54059 | 2.53260 | 20193 ft | 439 kts | 291° |
| 2026-04-14 13:41 | 51.55101 | 2.48719 | 20199 ft | 439 kts | 290° |
| 2026-04-14 13:41 | 51.56153 | 2.44119 | 20199 ft | 439 kts | 290° |
| 2026-04-14 13:42 | 51.57205 | 2.39510 | 20197 ft | 439 kts | 290° |
| 2026-04-14 13:42 | 51.58251 | 2.34915 | 20197 ft | 438 kts | 290° |
| 2026-04-14 13:42 | 51.59276 | 2.30414 | 19906 ft | 412 kts | 290° |
| 2026-04-14 13:42 | 51.60225 | 2.26246 | 19384 ft | 382 kts | 290° |
| 2026-04-14 13:43 | 51.61128 | 2.22281 | 18920 ft | 375 kts | 290° |
| 2026-04-14 13:43 | 51.62019 | 2.18346 | 18430 ft | 374 kts | 290° |
| 2026-04-14 13:43 | 51.62905 | 2.14429 | 17919 ft | 371 kts | 289° |
| 2026-04-14 13:43 | 51.63783 | 2.10538 | 17434 ft | 368 kts | 289° |
| 2026-04-14 13:44 | 51.64654 | 2.06670 | 16951 ft | 366 kts | 289° |
| 2026-04-14 13:44 | 51.65514 | 2.02833 | 16469 ft | 363 kts | 289° |
| 2026-04-14 13:44 | 51.66355 | 1.99077 | 16008 ft | 360 kts | 289° |
| 2026-04-14 13:44 | 51.67202 | 1.95289 | 15536 ft | 357 kts | 289° |
| 2026-04-14 13:45 | 51.68041 | 1.91535 | 15055 ft | 355 kts | 289° |
| 2026-04-14 13:45 | 51.68875 | 1.87793 | 14597 ft | 353 kts | 289° |
| 2026-04-14 13:45 | 51.69698 | 1.84088 | 14134 ft | 349 kts | 289° |
| 2026-04-14 13:45 | 51.70492 | 1.80519 | 13668 ft | 326 kts | 289° |
| 2026-04-14 13:46 | 51.71230 | 1.77192 | 13260 ft | 305 kts | 289° |
| 2026-04-14 13:46 | 51.71919 | 1.74066 | 12869 ft | 290 kts | 288° |
| 2026-04-14 13:46 | 51.72281 | 1.70810 | 12427 ft | 292 kts | 274° |
| 2026-04-14 13:46 | 51.72344 | 1.67584 | 12057 ft | 285 kts | 271° |
| 2026-04-14 13:47 | 51.72412 | 1.64403 | 11692 ft | 283 kts | 274° |
| 2026-04-14 13:47 | 51.72595 | 1.61245 | 11336 ft | 281 kts | 276° |
| 2026-04-14 13:47 | 51.72790 | 1.58173 | 10991 ft | 279 kts | 275° |
| 2026-04-14 13:47 | 51.72949 | 1.55051 | 10642 ft | 280 kts | 274° |
| 2026-04-14 13:48 | 51.73100 | 1.51911 | 10288 ft | 281 kts | 274° |
| 2026-04-14 13:48 | 51.73260 | 1.48794 | 9949 ft | 277 kts | 275° |
| 2026-04-14 13:48 | 51.73219 | 1.45730 | 9488 ft | 273 kts | 258° |
| 2026-04-14 13:48 | 51.72422 | 1.42972 | 9130 ft | 267 kts | 234° |
| 2026-04-14 13:49 | 51.71073 | 1.40940 | 9141 ft | 271 kts | 213° |
| 2026-04-14 13:49 | 51.69365 | 1.39625 | 9177 ft | 274 kts | 205° |
| 2026-04-14 13:49 | 51.67621 | 1.38388 | 9170 ft | 275 kts | 205° |
| 2026-04-14 13:49 | 51.65871 | 1.37130 | 9169 ft | 277 kts | 205° |
| 2026-04-14 13:50 | 51.64126 | 1.35873 | 9164 ft | 274 kts | 205° |
| 2026-04-14 13:50 | 51.62376 | 1.34620 | 9155 ft | 273 kts | 206° |
| 2026-04-14 13:50 | 51.60673 | 1.33289 | 9116 ft | 274 kts | 215° |
| 2026-04-14 13:50 | 51.59492 | 1.30942 | 8960 ft | 275 kts | 242° |
| 2026-04-14 13:51 | 51.58727 | 1.28121 | 8581 ft | 274 kts | 247° |
| 2026-04-14 13:51 | 51.57971 | 1.25401 | 8337 ft | 268 kts | 244° |
| 2026-04-14 13:51 | 51.57121 | 1.22751 | 8100 ft | 266 kts | 242° |
| 2026-04-14 13:51 | 51.56268 | 1.20112 | 7845 ft | 264 kts | 242° |
| 2026-04-14 13:52 | 51.55458 | 1.17500 | 7600 ft | 260 kts | 243° |
| 2026-04-14 13:52 | 51.54649 | 1.14884 | 7315 ft | 263 kts | 243° |
| 2026-04-14 13:52 | 51.53826 | 1.12259 | 7003 ft | 262 kts | 243° |
| 2026-04-14 13:52 | 51.53003 | 1.09637 | 6684 ft | 261 kts | 242° |
| 2026-04-14 13:53 | 51.52193 | 1.07053 | 6356 ft | 257 kts | 242° |
| 2026-04-14 13:53 | 51.51391 | 1.04494 | 6004 ft | 253 kts | 242° |
| 2026-04-14 13:53 | 51.50610 | 1.02007 | 6010 ft | 252 kts | 242° |
| 2026-04-14 13:53 | 51.49825 | 0.99517 | 6015 ft | 255 kts | 242° |
| 2026-04-14 13:54 | 51.49031 | 0.96992 | 6024 ft | 256 kts | 242° |
| 2026-04-14 13:54 | 51.48228 | 0.94447 | 6004 ft | 255 kts | 242° |
| 2026-04-14 13:54 | 51.47587 | 0.91808 | 5959 ft | 253 kts | 257° |
| 2026-04-14 13:54 | 51.47569 | 0.88953 | 5702 ft | 260 kts | 271° |
| 2026-04-14 13:55 | 51.47708 | 0.86069 | 5462 ft | 258 kts | 271° |
| 2026-04-14 13:55 | 51.47822 | 0.83224 | 5221 ft | 254 kts | 269° |
| 2026-04-14 13:55 | 51.47922 | 0.80403 | 4975 ft | 253 kts | 269° |
| 2026-04-14 13:55 | 51.48026 | 0.77574 | 4716 ft | 254 kts | 269° |
| 2026-04-14 13:56 | 51.48134 | 0.74742 | 4455 ft | 254 kts | 270° |
| 2026-04-14 13:56 | 51.48240 | 0.71923 | 4198 ft | 253 kts | 269° |
| 2026-04-14 13:56 | 51.48344 | 0.69110 | 3939 ft | 254 kts | 270° |
| 2026-04-14 13:56 | 51.48448 | 0.66313 | 3679 ft | 248 kts | 269° |
| 2026-04-14 13:57 | 51.48549 | 0.63562 | 3420 ft | 246 kts | 269° |
| 2026-04-14 13:57 | 51.48648 | 0.60809 | 3156 ft | 246 kts | 269° |
| 2026-04-14 13:57 | 51.48747 | 0.58087 | 2901 ft | 244 kts | 268° |
| 2026-04-14 13:57 | 51.48845 | 0.55355 | 2628 ft | 245 kts | 269° |
| 2026-04-14 13:58 | 51.48943 | 0.52714 | 2490 ft | 226 kts | 268° |
| 2026-04-14 13:58 | 51.49032 | 0.50288 | 2489 ft | 213 kts | 268° |
| 2026-04-14 13:58 | 51.49100 | 0.47944 | 2495 ft | 212 kts | 265° |
| 2026-04-14 13:58 | 51.48732 | 0.45735 | 2466 ft | 202 kts | 237° |
| 2026-04-14 13:59 | 51.48001 | 0.43779 | 2511 ft | 204 kts | 235° |
| 2026-04-14 13:59 | 51.47280 | 0.41805 | 2501 ft | 203 kts | 235° |
| 2026-04-14 13:59 | 51.46568 | 0.39848 | 2499 ft | 203 kts | 235° |
| 2026-04-14 13:59 | 51.45851 | 0.37895 | 2487 ft | 205 kts | 235° |
| 2026-04-14 14:00 | 51.45130 | 0.35930 | 2488 ft | 205 kts | 235° |
| 2026-04-14 14:00 | 51.44413 | 0.33975 | 2488 ft | 202 kts | 235° |
| 2026-04-14 14:00 | 51.43692 | 0.32019 | 2485 ft | 203 kts | 234° |
| 2026-04-14 14:00 | 51.42977 | 0.30063 | 2483 ft | 204 kts | 236° |
| 2026-04-14 14:01 | 51.42598 | 0.27840 | 2489 ft | 210 kts | 258° |
| 2026-04-14 14:01 | 51.42462 | 0.25507 | 2505 ft | 213 kts | 259° |
| 2026-04-14 14:01 | 51.42295 | 0.23154 | 2506 ft | 214 kts | 257° |
| 2026-04-14 14:01 | 51.42124 | 0.20794 | 2503 ft | 214 kts | 258° |
| 2026-04-14 14:02 | 51.41955 | 0.18413 | 2430 ft | 216 kts | 258° |
| 2026-04-14 14:02 | 51.41790 | 0.16032 | 2232 ft | 214 kts | 259° |
| 2026-04-14 14:02 | 51.41625 | 0.13676 | 2024 ft | 212 kts | 258° |
| 2026-04-14 14:02 | 51.41425 | 0.11359 | 1789 ft | 203 kts | 251° |
| 2026-04-14 14:03 | 51.40799 | 0.09584 | 1780 ft | 167 kts | 224° |
| 2026-04-14 14:03 | 51.39936 | 0.08595 | 1780 ft | 144 kts | 203° |
| 2026-04-14 14:03 | 51.39056 | 0.07868 | 1765 ft | 144 kts | 205° |
| 2026-04-14 14:03 | 51.38159 | 0.07144 | 1562 ft | 140 kts | 204° |
| 2026-04-14 14:04 | 51.37360 | 0.06521 | 1363 ft | 116 kts | 201° |
| 2026-04-14 14:04 | 51.36684 | 0.05997 | 1205 ft | 102 kts | 201° |
| 2026-04-14 14:04 | 51.36055 | 0.05519 | 1046 ft | 100 kts | 201° |
| 2026-04-14 14:04 | 51.35437 | 0.05036 | 910 ft | 97 kts | 205° |
| 2026-04-14 14:05 | 51.34813 | 0.04558 | 784 ft | 100 kts | 204° |
| 2026-04-14 14:05 | 51.34213 | 0.04096 | 671 ft | 92 kts | 203° |
| 2026-04-14 14:05 | 51.33654 | 0.03666 | 549 ft | 86 kts | 203° |
| 2026-04-14 14:05 | 51.33184 | 0.03327 | 567 ft | 56 kts | 206° |
| 2026-04-14 14:06 | 51.32923 | 0.03121 | 577 ft | 29 kts | 206° |
| 2026-04-14 14:06 | 51.32775 | 0.03005 | 577 ft | 21 kts | 203° |
| 2026-04-14 14:06 | 51.32654 | 0.02908 | 547 ft | 18 kts | 206° |
| 2026-04-14 14:06 | 51.32555 | 0.02830 | 551 ft | 14 kts | 206° |
| 2026-04-14 14:07 | 51.32475 | 0.02767 | 554 ft | 11 kts | 206° |
| 2026-04-14 14:07 | 51.32409 | 0.02713 | 555 ft | 11 kts | 218° |
| 2026-04-14 14:07 | 51.32425 | 0.02610 | 553 ft | 12 kts | 298° |
| 2026-04-14 14:07 | 51.32488 | 0.02548 | 552 ft | 10 kts | 345° |
| 2026-04-14 14:08 | 51.32560 | 0.02567 | 549 ft | 14 kts | 26° |
| 2026-04-14 14:08 | 51.32680 | 0.02659 | 542 ft | 24 kts | 26° |
| 2026-04-14 14:08 | 51.32816 | 0.02771 | 538 ft | 18 kts | 30° |
| 2026-04-14 14:08 | 51.32907 | 0.02840 | 573 ft | 14 kts | 18° |
| 2026-04-14 14:09 | 51.33005 | 0.02903 | 574 ft | 17 kts | 25° |
| 2026-04-14 14:09 | 51.33136 | 0.03006 | 565 ft | 19 kts | 26° |
| 2026-04-14 14:09 | 51.33254 | 0.03095 | 565 ft | 12 kts | 21° |
| 2026-04-14 14:09 | 51.33287 | 0.03049 | 564 ft | 8 kts | 286° |
| 2026-04-14 14:10 | 51.33300 | 0.02996 | 561 ft | 2 kts | 292° |
| 2026-04-14 14:10 | 51.33303 | 0.02987 | 559 ft | 0 kts | 295° |